Terminal Aerodrome Forecast
Issued by NWS

Home | Current Version | Previous Version | Text Only | Print | Product List | Glossary On
Versions: 1 2 3 4 5 6 7 8 9 10 11 12 13
000
FTUS43 KMQT 180324 AAA
TAFCMX
TAF AMD
KCMX 180324Z 1803/1824 27005KT 1SM BR BKN001
      TEMPO 1803/1807 1/4SM FZFG
     FM181200 25012KT 3SM BR SCT001
     FM181400 25014G24KT P6SM SCT200
     FM182200 26010KT P6SM SCT200=

USA.gov is the U.S. government's official web portal to all federal, state and local government web resources and services.